Kezdőlap
METAR-TAF:

METAR-TAF

Repülőterek :

Kuala Lumpur, Malajzia

földrajzi szélesség: 02-44N, földrajzi hosszúság: 101-42E, magasság: 21 m

Jelenlegi meteorológiai megfigyelések

A jelentés 39 perccel ezelõtt készült, 02:30 UTC
Szélcsend
Hőmérséklet 28°C
Páratartalom 74%
Légköri nyomás 1010 hPa
Látótávolság 10 km, vagy több
Kevés felhő 1800 lábon

METAR: WMKK 220230Z 00000KT 9999 FEW018 28/23 Q1010 NOSIG

Idő: 11:09 (03:09 UTC)

Előrejelzés

A jelentés 4 órával és 9 perccel ezelõtt készült, 23:00 UTC
Az előrejelzés 22-én 00 óra UTC és 23-én 06 óra UTC között érvényes
Különbözõ irányokból fújó szél 2 kt
Látótávolság: 9000 m
Szórványos felhőzet 3000 lábon
22-én 00 óra UTC és 22-én 03 óra UTC között ideiglenes
Látótávolság: 7000 m
Kevés felhő 1000 lábon
enyhe esõ,

TAF: WMKK 212300Z 2200/2306 VRB02KT 9000 SCT030 TEMPO 2200/2203 7000 -RA FEW010

Meteorológiai megfigyelések és előrejelzések több, mint 4000 repülőtéren (METAR és TAF jelentéseket).

A térképen piros és sárga pontok jelzik az elérhető meteorológiai állomásokat.

Mozgassa az egeret a pont fölött, hogy megjelenjen az állomás neve.

Azután kattintson az időjárási megfigyelések és előrejelzések megtekintéséhez.

A térkép megváltoztatása: kattintson a fekete keresztel jelölt zöld gombra ráközelítéshez, a vonallal jelölt zöld gombra távolításhoz, vagy a zöld nyilakra a szomszédos térképek eléréséhez.


METAR-TAF: